Time;durP1;ratioP1;P1;durP2;ratioP2;P2;SDS_P1;SDS_P2;PMS_P1;PMS_P2;Temp;Humidity;BMP_temperature;BMP_pressure;BME280_temperature;BME280_humidity;BME280_pressure;Samples;Min_cycle;Max_cycle;Signal;HPM_P1;HPM_P2
2022/07/31 00:01:01;;;;;;;14.45;6.85;;;;;;;;;;5100616;28;20039;-80
2022/07/31 00:03:48;;;;;;;10.23;6.00;;;;;;;;;;5100285;28;20043;-80
2022/07/31 00:06:38;;;;;;;12.07;6.43;;;;;;;;;;5093819;28;20035;-79
2022/07/31 00:09:24;;;;;;;8.85;6.50;;;;;;;;;;5115775;28;20047;-79
2022/07/31 00:12:09;;;;;;;9.32;6.38;;;;;;;;;;5115937;28;20040;-79
2022/07/31 00:14:54;;;;;;;12.30;6.15;;;;;;;;;;5116514;28;20040;-79
2022/07/31 00:17:41;;;;;;;10.13;7.00;;;;;;;;;;5115802;28;20047;-79
2022/07/31 00:20:27;;;;;;;19.65;6.78;;;;;;;;;;5107271;28;20036;-79
2022/07/31 00:23:13;;;;;;;14.43;6.40;;;;;;;;;;5122784;28;20039;-79
2022/07/31 00:26:01;;;;;;;7.68;6.50;;;;;;;;;;5122582;28;20044;-79
2022/07/31 00:28:47;;;;;;;7.47;6.65;;;;;;;;;;5100772;28;20488;-79
2022/07/31 00:31:36;;;;;;;9.30;6.63;;;;;;;;;;5115584;28;20476;-80
2022/07/31 00:34:22;;;;;;;16.38;6.65;;;;;;;;;;5115632;28;20043;-79
2022/07/31 00:37:08;;;;;;;12.88;8.52;;;;;;;;;;5106778;28;20040;-79
2022/07/31 00:39:54;;;;;;;20.10;10.38;;;;;;;;;;5115663;28;20036;-79
2022/07/31 00:42:40;;;;;;;15.20;9.23;;;;;;;;;;5106831;28;20500;-79
2022/07/31 00:45:26;;;;;;;14.73;8.55;;;;;;;;;;5122063;28;20039;-79
2022/07/31 00:48:11;;;;;;;14.05;7.22;;;;;;;;;;5106761;28;20051;-79
2022/07/31 00:50:57;;;;;;;8.82;6.63;;;;;;;;;;5115034;28;20048;-79
2022/07/31 00:53:43;;;;;;;10.85;5.60;;;;;;;;;;5115288;28;20047;-79
2022/07/31 00:56:28;;;;;;;10.27;5.78;;;;;;;;;;5115406;28;20031;-79
2022/07/31 00:59:16;;;;;;;7.05;5.53;;;;;;;;;;5103588;28;20412;-78
2022/07/31 01:02:01;;;;;;;8.93;5.45;;;;;;;;;;5107094;28;20388;-78
2022/07/31 01:04:47;;;;;;;7.68;5.22;;;;;;;;;;5115207;28;20051;-78
2022/07/31 01:07:33;;;;;;;6.95;5.10;;;;;;;;;;5106450;28;20044;-77
2022/07/31 01:10:37;;;;;;;6.72;5.32;;;;;;;;;;5121812;28;20039;-77
2022/07/31 01:13:34;;;;;;;7.15;5.70;;;;;;;;;;5114892;28;20044;-79
2022/07/31 01:16:22;;;;;;;10.23;6.57;;;;;;;;;;5106256;28;20039;-78
2022/07/31 01:19:31;;;;;;;11.98;6.82;;;;;;;;;;5105767;28;20039;-78
2022/07/31 01:22:55;;;;;;;11.77;7.50;;;;;;;;;;5098460;28;20040;-78
2022/07/31 01:26:09;;;;;;;16.33;6.88;;;;;;;;;;5106248;28;20036;-77
2022/07/31 01:29:31;;;;;;;10.32;6.85;;;;;;;;;;5106437;28;20039;-78
2022/07/31 01:32:26;;;;;;;10.15;6.45;;;;;;;;;;5106116;28;20031;-77
2022/07/31 01:35:24;;;;;;;12.15;6.72;;;;;;;;;;5105663;28;20472;-77
2022/07/31 01:38:18;;;;;;;7.50;6.40;;;;;;;;;;5105760;28;20040;-77
2022/07/31 01:41:10;;;;;;;10.48;6.30;;;;;;;;;;5114270;28;20052;-76
2022/07/31 01:43:57;;;;;;;11.93;6.32;;;;;;;;;;5114742;28;20047;-76
2022/07/31 01:46:45;;;;;;;10.88;6.38;;;;;;;;;;5105855;28;20472;-76
2022/07/31 01:49:33;;;;;;;7.90;5.75;;;;;;;;;;5105688;28;20044;-77
2022/07/31 01:52:21;;;;;;;11.73;7.00;;;;;;;;;;5105941;28;20047;-76
2022/07/31 01:55:08;;;;;;;8.18;6.05;;;;;;;;;;5105215;28;20040;-77
2022/07/31 01:57:55;;;;;;;11.90;7.25;;;;;;;;;;5105607;28;20043;-76
2022/07/31 02:00:41;;;;;;;11.43;6.20;;;;;;;;;;5092795;28;20048;-77
2022/07/31 02:03:29;;;;;;;7.38;5.68;;;;;;;;;;5099691;28;20040;-77
2022/07/31 02:06:16;;;;;;;13.30;6.00;;;;;;;;;;5094109;28;20473;-77
2022/07/31 02:09:02;;;;;;;9.65;6.10;;;;;;;;;;5099565;28;20396;-77
2022/07/31 02:11:50;;;;;;;10.07;6.53;;;;;;;;;;5099636;28;20040;-76
2022/07/31 02:14:36;;;;;;;9.75;6.90;;;;;;;;;;5099430;28;20051;-77
2022/07/31 02:17:24;;;;;;;11.07;6.70;;;;;;;;;;5099694;28;20048;-77
2022/07/31 02:20:30;;;;;;;10.60;6.40;;;;;;;;;;5097762;28;20473;-77
2022/07/31 02:23:16;;;;;;;9.95;6.50;;;;;;;;;;5103363;28;20048;-78
2022/07/31 02:26:02;;;;;;;8.02;6.68;;;;;;;;;;5097488;28;20048;-79
2022/07/31 02:28:48;;;;;;;14.15;6.35;;;;;;;;;;5103052;28;20039;-77
2022/07/31 02:31:34;;;;;;;8.75;6.88;;;;;;;;;;5097529;28;20039;-77
2022/07/31 02:34:22;;;;;;;8.95;6.68;;;;;;;;;;5103400;28;20508;-77
2022/07/31 02:37:08;;;;;;;8.55;6.53;;;;;;;;;;5103286;28;20040;-77
2022/07/31 02:39:55;;;;;;;14.80;6.53;;;;;;;;;;5103414;28;20040;-78
2022/07/31 02:42:41;;;;;;;9.93;6.85;;;;;;;;;;5103538;28;20420;-78
2022/07/31 02:45:26;;;;;;;9.00;6.38;;;;;;;;;;5097276;28;20044;-78
2022/07/31 02:48:11;;;;;;;9.02;6.45;;;;;;;;;;5103155;28;20032;-78
2022/07/31 02:51:03;;;;;;;7.85;6.47;;;;;;;;;;5102915;28;20040;-78
2022/07/31 02:53:50;;;;;;;7.63;6.00;;;;;;;;;;5103000;28;20040;-78
2022/07/31 02:56:39;;;;;;;8.57;6.20;;;;;;;;;;5103400;28;20044;-78
2022/07/31 02:59:23;;;;;;;9.13;6.45;;;;;;;;;;5099571;28;20044;-78
2022/07/31 03:02:18;;;;;;;10.77;6.90;;;;;;;;;;5102841;28;20044;-78
2022/07/31 03:05:04;;;;;;;12.82;6.68;;;;;;;;;;5103670;28;20044;-78
2022/07/31 03:07:49;;;;;;;11.75;6.75;;;;;;;;;;5102888;28;20052;-78
2022/07/31 03:10:34;;;;;;;9.75;7.13;;;;;;;;;;5102673;28;20396;-78
2022/07/31 03:13:26;;;;;;;17.80;8.00;;;;;;;;;;5102591;28;20484;-78
2022/07/31 03:16:13;;;;;;;12.13;8.35;;;;;;;;;;5096801;28;20040;-78
2022/07/31 03:19:00;;;;;;;18.42;7.53;;;;;;;;;;5102185;28;20048;-78
2022/07/31 03:21:47;;;;;;;13.82;7.75;;;;;;;;;;5102784;28;20044;-78
2022/07/31 03:24:33;;;;;;;12.52;7.20;;;;;;;;;;5102621;28;20039;-78
2022/07/31 03:27:17;;;;;;;14.63;7.25;;;;;;;;;;5102242;28;20040;-78
2022/07/31 03:30:05;;;;;;;10.35;7.40;;;;;;;;;;5101938;28;20048;-78
2022/07/31 03:32:52;;;;;;;13.02;7.53;;;;;;;;;;5096496;28;20044;-78
2022/07/31 03:35:38;;;;;;;11.90;7.30;;;;;;;;;;5103248;28;20043;-78
2022/07/31 03:38:23;;;;;;;12.27;7.20;;;;;;;;;;5102065;28;20044;-78
2022/07/31 03:41:10;;;;;;;8.55;6.65;;;;;;;;;;5102009;28;20040;-78
2022/07/31 03:43:55;;;;;;;12.00;6.93;;;;;;;;;;5096374;28;20040;-78
2022/07/31 03:46:41;;;;;;;10.00;7.07;;;;;;;;;;5101960;28;20052;-78
2022/07/31 03:49:27;;;;;;;9.55;6.45;;;;;;;;;;5101922;28;20040;-78
2022/07/31 03:52:13;;;;;;;12.35;7.50;;;;;;;;;;5102389;28;20066;-78
2022/07/31 03:54:59;;;;;;;9.07;7.03;;;;;;;;;;5102851;28;20040;-78
2022/07/31 03:57:45;;;;;;;9.25;7.30;;;;;;;;;;5096570;28;20052;-78
2022/07/31 04:00:31;;;;;;;9.43;6.60;;;;;;;;;;5113750;28;20048;-78
2022/07/31 04:03:18;;;;;;;12.65;7.28;;;;;;;;;;5108059;28;20040;-78
2022/07/31 04:06:24;;;;;;;11.45;6.82;;;;;;;;;;5112475;28;20048;-78
2022/07/31 04:09:09;;;;;;;11.02;7.75;;;;;;;;;;5107806;28;20040;-78
2022/07/31 04:11:54;;;;;;;14.43;7.85;;;;;;;;;;5093644;28;20039;-78
2022/07/31 04:14:39;;;;;;;14.57;7.75;;;;;;;;;;5107491;28;20036;-78
2022/07/31 04:17:25;;;;;;;10.10;7.85;;;;;;;;;;5115970;28;20047;-78
2022/07/31 04:20:10;;;;;;;9.23;7.55;;;;;;;;;;5107443;28;20423;-78
2022/07/31 04:22:57;;;;;;;10.07;7.97;;;;;;;;;;5107309;28;20044;-78
2022/07/31 04:26:03;;;;;;;10.70;8.10;;;;;;;;;;5122550;28;20039;-78
2022/07/31 04:29:02;;;;;;;14.23;8.77;;;;;;;;;;5107332;28;20499;-78
2022/07/31 04:31:47;;;;;;;12.30;8.10;;;;;;;;;;5107505;28;20377;-78
2022/07/31 04:34:41;;;;;;;11.85;8.55;;;;;;;;;;5107174;28;20044;-77
2022/07/31 04:37:26;;;;;;;11.52;8.05;;;;;;;;;;5107437;28;20399;-78
2022/07/31 04:40:12;;;;;;;11.65;8.18;;;;;;;;;;5106652;28;20480;-78
2022/07/31 04:42:57;;;;;;;10.73;8.00;;;;;;;;;;5078651;28;20035;-77
2022/07/31 04:45:43;;;;;;;11.18;8.05;;;;;;;;;;5107069;28;20040;-77
2022/07/31 04:48:28;;;;;;;9.85;7.63;;;;;;;;;;5107118;28;20488;-77
2022/07/31 04:51:20;;;;;;;9.02;7.13;;;;;;;;;;5106989;28;20051;-81
2022/07/31 04:54:05;;;;;;;15.40;7.88;;;;;;;;;;5106699;28;20055;-80
2022/07/31 04:56:50;;;;;;;9.98;7.60;;;;;;;;;;5106769;28;20051;-79
2022/07/31 04:59:35;;;;;;;10.23;8.20;;;;;;;;;;5097379;28;20044;-80
2022/07/31 05:02:21;;;;;;;9.95;7.97;;;;;;;;;;5100316;28;20043;-79
2022/07/31 05:05:08;;;;;;;14.82;8.23;;;;;;;;;;5100319;28;20051;-79
2022/07/31 05:07:57;;;;;;;9.00;7.38;;;;;;;;;;5100543;28;20044;-79
2022/07/31 05:13:57;;;;;;;11.05;8.68;;;;;;;;;;5100891;28;20048;-78
2022/07/31 05:16:43;;;;;;;12.75;8.18;;;;;;;;;;5100600;28;20040;-79
2022/07/31 05:19:29;;;;;;;9.88;8.10;;;;;;;;;;5099620;28;20044;-79
2022/07/31 05:22:41;;;;;;;9.88;7.70;;;;;;;;;;5101225;28;20392;-78
2022/07/31 05:25:45;;;;;;;13.50;7.95;;;;;;;;;;5094069;28;20040;-79
2022/07/31 05:28:31;;;;;;;14.50;8.55;;;;;;;;;;5094017;28;20048;-81
2022/07/31 05:31:18;;;;;;;12.52;9.32;;;;;;;;;;5099459;28;20051;-80
2022/07/31 05:34:03;;;;;;;13.63;8.38;;;;;;;;;;5099973;28;20047;-79
2022/07/31 05:36:49;;;;;;;9.45;8.27;;;;;;;;;;5100072;28;20040;-79
2022/07/31 05:39:34;;;;;;;10.77;8.55;;;;;;;;;;5099144;28;20044;-78
2022/07/31 05:42:38;;;;;;;11.57;8.50;;;;;;;;;;5094048;28;20048;-78
2022/07/31 05:45:49;;;;;;;21.92;12.23;;;;;;;;;;5093406;28;20032;-79
2022/07/31 05:48:36;;;;;;;22.30;11.63;;;;;;;;;;5094207;28;20052;-79
2022/07/31 05:51:21;;;;;;;21.65;12.18;;;;;;;;;;5094462;28;20039;-79
2022/07/31 05:54:06;;;;;;;10.73;8.23;;;;;;;;;;5099527;28;20036;-79
2022/07/31 05:57:10;;;;;;;13.43;8.90;;;;;;;;;;5093920;28;20044;-78
2022/07/31 06:00:00;;;;;;;11.05;6.95;;;;;;;;;;5094615;28;20508;-78
2022/07/31 06:02:46;;;;;;;9.07;7.95;;;;;;;;;;5099615;28;20044;-79
2022/07/31 06:06:00;;;;;;;10.88;8.07;;;;;;;;;;5091527;28;20040;-79
2022/07/31 06:08:45;;;;;;;8.55;7.65;;;;;;;;;;5099272;28;20044;-79
2022/07/31 06:11:31;;;;;;;9.43;8.02;;;;;;;;;;5099071;28;20044;-79
2022/07/31 06:14:16;;;;;;;10.60;8.23;;;;;;;;;;5100560;28;20044;-78
2022/07/31 06:17:18;;;;;;;12.25;7.47;;;;;;;;;;5099863;28;20040;-79
2022/07/31 06:20:04;;;;;;;8.00;6.88;;;;;;;;;;5098922;28;20044;-79
2022/07/31 06:22:49;;;;;;;7.88;5.10;;;;;;;;;;5099446;28;20047;-78
2022/07/31 06:25:35;;;;;;;8.45;5.68;;;;;;;;;;5099888;28;20044;-78
2022/07/31 06:28:22;;;;;;;6.45;4.80;;;;;;;;;;5099348;28;20484;-78
2022/07/31 06:31:20;;;;;;;8.70;4.88;;;;;;;;;;5099454;28;20481;-78
2022/07/31 06:34:05;;;;;;;7.28;4.38;;;;;;;;;;5099265;28;20036;-79
2022/07/31 06:36:56;;;;;;;5.03;4.28;;;;;;;;;;5100108;28;20389;-80
2022/07/31 06:39:41;;;;;;;4.50;3.72;;;;;;;;;;5092299;28;20532;-79
2022/07/31 06:42:47;;;;;;;4.82;4.20;;;;;;;;;;5093876;28;20048;-77
2022/07/31 06:45:35;;;;;;;4.97;4.00;;;;;;;;;;5092221;28;20036;-77
2022/07/31 06:48:39;;;;;;;6.95;3.28;;;;;;;;;;5092751;28;20069;-78
2022/07/31 06:51:31;;;;;;;5.18;4.05;;;;;;;;;;5098934;28;20473;-77
2022/07/31 06:54:15;;;;;;;5.75;4.40;;;;;;;;;;5099235;28;20048;-77
2022/07/31 06:57:02;;;;;;;8.90;4.45;;;;;;;;;;5099528;28;20048;-78
2022/07/31 06:59:52;;;;;;;5.15;4.32;;;;;;;;;;5107716;28;20047;-78
2022/07/31 07:02:40;;;;;;;9.23;4.60;;;;;;;;;;5104881;28;20035;-78
2022/07/31 07:05:25;;;;;;;4.95;4.20;;;;;;;;;;5108723;28;20043;-77
2022/07/31 07:08:13;;;;;;;11.35;4.88;;;;;;;;;;5108431;28;20036;-78
2022/07/31 07:11:01;;;;;;;4.95;4.45;;;;;;;;;;5108244;28;20039;-78
2022/07/31 07:13:54;;;;;;;6.57;4.75;;;;;;;;;;5124173;28;20035;-77
2022/07/31 07:16:40;;;;;;;6.43;4.30;;;;;;;;;;5117483;28;20396;-77
2022/07/31 07:19:26;;;;;;;7.05;5.15;;;;;;;;;;5116639;28;20047;-78
2022/07/31 07:22:12;;;;;;;5.45;3.90;;;;;;;;;;5109054;28;20043;-78
2022/07/31 07:24:59;;;;;;;5.10;3.75;;;;;;;;;;5109057;28;20040;-77
2022/07/31 07:27:46;;;;;;;14.85;13.27;;;;;;;;;;5108513;28;20035;-79
2022/07/31 07:30:31;;;;;;;7.85;5.20;;;;;;;;;;5108612;28;20048;-80
2022/07/31 07:33:19;;;;;;;6.47;4.00;;;;;;;;;;5109115;28;20043;-79
2022/07/31 07:36:04;;;;;;;6.00;4.05;;;;;;;;;;5095692;28;20384;-79
2022/07/31 07:38:52;;;;;;;17.30;13.25;;;;;;;;;;5117916;28;20392;-79
2022/07/31 07:41:37;;;;;;;4.10;3.47;;;;;;;;;;5108694;28;20051;-79
2022/07/31 07:44:23;;;;;;;25.23;19.92;;;;;;;;;;5109116;28;20403;-79
2022/07/31 07:47:08;;;;;;;8.38;5.10;;;;;;;;;;5117717;28;20039;-79
2022/07/31 07:49:56;;;;;;;6.88;5.80;;;;;;;;;;5108814;28;20043;-78
2022/07/31 07:53:16;;;;;;;3.83;3.33;;;;;;;;;;5123429;28;20039;-78
2022/07/31 07:56:24;;;;;;;5.57;3.58;;;;;;;;;;5105062;28;20044;-77
2022/07/31 07:59:11;;;;;;;3.90;3.40;;;;;;;;;;5116100;28;20051;-78
2022/07/31 08:02:15;;;;;;;3.38;3.08;;;;;;;;;;5116034;28;20031;-78
2022/07/31 08:05:00;;;;;;;3.95;3.55;;;;;;;;;;5107676;28;20036;-78
2022/07/31 08:07:46;;;;;;;5.65;3.25;;;;;;;;;;5116275;28;20040;-78
2022/07/31 08:10:50;;;;;;;4.10;3.40;;;;;;;;;;5116299;28;20052;-77
2022/07/31 08:13:47;;;;;;;4.85;3.65;;;;;;;;;;5107481;28;20055;-78
2022/07/31 08:16:53;;;;;;;5.53;3.50;;;;;;;;;;5116076;28;20043;-79
2022/07/31 08:19:38;;;;;;;4.00;3.28;;;;;;;;;;5107133;28;20051;-80
2022/07/31 08:22:24;;;;;;;5.22;3.25;;;;;;;;;;5107651;28;20047;-79
2022/07/31 08:25:10;;;;;;;2.38;2.17;;;;;;;;;;5116209;28;20048;-76
2022/07/31 08:27:56;;;;;;;5.22;3.50;;;;;;;;;;5107105;28;20052;-77
2022/07/31 08:30:41;;;;;;;4.28;3.30;;;;;;;;;;5116069;28;20043;-78
2022/07/31 08:33:29;;;;;;;3.70;3.17;;;;;;;;;;5107139;28;20040;-78
2022/07/31 08:36:17;;;;;;;5.10;3.65;;;;;;;;;;5123040;28;20481;-78
2022/07/31 08:39:03;;;;;;;4.93;3.42;;;;;;;;;;5107564;28;20047;-80
2022/07/31 08:42:09;;;;;;;5.47;3.30;;;;;;;;;;5107628;28;20484;-80
2022/07/31 08:44:57;;;;;;;4.47;4.07;;;;;;;;;;5108014;28;20404;-80
2022/07/31 08:47:47;;;;;;;8.90;4.47;;;;;;;;;;5106685;28;20047;-80
2022/07/31 08:50:44;;;;;;;5.75;3.97;;;;;;;;;;5107299;28;20047;-80
2022/07/31 08:53:43;;;;;;;4.40;3.30;;;;;;;;;;5107149;28;20472;-79
2022/07/31 08:56:39;;;;;;;8.18;3.95;;;;;;;;;;5107713;28;20048;-79
2022/07/31 08:59:25;;;;;;;6.18;4.30;;;;;;;;;;5103662;28;20051;-79
2022/07/31 09:02:11;;;;;;;3.58;3.17;;;;;;;;;;5093244;28;20484;-79
2022/07/31 09:05:09;;;;;;;6.57;3.80;;;;;;;;;;5106591;28;20407;-78
2022/07/31 09:07:54;;;;;;;7.05;4.15;;;;;;;;;;5106635;28;20040;-78
2022/07/31 09:10:42;;;;;;;3.65;3.25;;;;;;;;;;5106225;28;20044;-79
2022/07/31 09:13:28;;;;;;;3.63;3.17;;;;;;;;;;5106308;28;20040;-79
2022/07/31 09:16:13;;;;;;;4.50;3.00;;;;;;;;;;5106490;28;20040;-79
2022/07/31 09:19:04;;;;;;;7.22;3.22;;;;;;;;;;5106734;28;20475;-80
2022/07/31 09:21:51;;;;;;;3.92;3.53;;;;;;;;;;5121293;28;20047;-81
2022/07/31 09:24:36;;;;;;;4.10;3.38;;;;;;;;;;5105874;28;20031;-81
2022/07/31 09:27:27;;;;;;;4.15;3.42;;;;;;;;;;5105922;28;20044;-79
2022/07/31 09:30:13;;;;;;;7.47;5.45;;;;;;;;;;5105869;28;20044;-77
2022/07/31 09:33:18;;;;;;;5.25;3.47;;;;;;;;;;5114860;28;20043;-75
2022/07/31 09:36:32;;;;;;;4.07;3.67;;;;;;;;;;5121283;28;20040;-78
2022/07/31 09:39:28;;;;;;;5.22;3.17;;;;;;;;;;5106084;28;20047;-78
2022/07/31 09:42:44;;;;;;;4.40;4.00;;;;;;;;;;5114300;28;20472;-78
2022/07/31 09:45:38;;;;;;;7.03;4.45;;;;;;;;;;5114640;28;20504;-78
2022/07/31 09:48:25;;;;;;;6.28;4.63;;;;;;;;;;5105742;28;20039;-79
2022/07/31 09:51:11;;;;;;;4.22;3.50;;;;;;;;;;5105946;28;20035;-76
2022/07/31 09:53:58;;;;;;;6.93;3.80;;;;;;;;;;5105819;28;20035;-78
2022/07/31 09:57:23;;;;;;;4.50;3.28;;;;;;;;;;5109914;28;20051;-77
2022/07/31 10:00:14;;;;;;;3.60;3.05;;;;;;;;;;5094109;28;20064;-75
2022/07/31 10:03:00;;;;;;;4.65;3.10;;;;;;;;;;5093944;28;20048;-79
2022/07/31 10:05:49;;;;;;;4.63;3.05;;;;;;;;;;5099533;28;20040;-77
2022/07/31 10:08:35;;;;;;;2.92;2.72;;;;;;;;;;5099810;28;20040;-76
2022/07/31 10:11:57;;;;;;;5.07;2.90;;;;;;;;;;5099347;28;20044;-77
2022/07/31 10:14:45;;;;;;;3.83;3.03;;;;;;;;;;5099493;28;20048;-76
2022/07/31 10:17:39;;;;;;;4.57;3.10;;;;;;;;;;5099972;28;20040;-76
2022/07/31 10:20:54;;;;;;;3.42;2.85;;;;;;;;;;5086282;28;20047;-77
2022/07/31 10:24:07;;;;;;;4.53;2.92;;;;;;;;;;5099362;28;20052;-76
2022/07/31 10:26:56;;;;;;;3.47;3.00;;;;;;;;;;5099196;28;20048;-77
2022/07/31 10:29:43;;;;;;;5.13;3.17;;;;;;;;;;5099321;28;20044;-76
2022/07/31 10:32:30;;;;;;;4.53;3.35;;;;;;;;;;5099128;28;20052;-78
2022/07/31 10:35:41;;;;;;;4.22;3.55;;;;;;;;;;5093502;28;20044;-78
2022/07/31 10:38:57;;;;;;;3.30;3.00;;;;;;;;;;5100061;28;20032;-75
2022/07/31 10:42:24;;;;;;;3.40;2.97;;;;;;;;;;5103750;28;20048;-76
2022/07/31 10:45:13;;;;;;;4.28;3.28;;;;;;;;;;5103563;28;20048;-80
2022/07/31 10:48:10;;;;;;;4.65;3.10;;;;;;;;;;5109430;28;20077;-79
2022/07/31 10:51:14;;;;;;;5.88;3.10;;;;;;;;;;5103631;28;20040;-80
2022/07/31 10:54:20;;;;;;;6.35;2.95;;;;;;;;;;5102039;28;20040;-79
2022/07/31 10:57:30;;;;;;;3.38;2.67;;;;;;;;;;5097308;28;20048;-79
2022/07/31 11:00:35;;;;;;;4.35;2.40;;;;;;;;;;5114419;28;20048;-79
2022/07/31 11:03:59;;;;;;;3.00;2.70;;;;;;;;;;5093703;28;20035;-79
2022/07/31 11:07:13;;;;;;;3.55;2.70;;;;;;;;;;5109051;28;20043;-79
2022/07/31 11:10:20;;;;;;;5.00;2.90;;;;;;;;;;5094264;28;20043;-78
2022/07/31 11:13:32;;;;;;;2.97;2.60;;;;;;;;;;5117132;28;20044;-79
2022/07/31 11:16:51;;;;;;;2.58;2.38;;;;;;;;;;5124150;28;20392;-79
2022/07/31 11:19:58;;;;;;;4.22;2.63;;;;;;;;;;5123788;28;20040;-79
2022/07/31 11:22:52;;;;;;;5.55;2.70;;;;;;;;;;5124091;28;20047;-78
2022/07/31 11:25:37;;;;;;;2.57;2.30;;;;;;;;;;5117133;28;20040;-78
2022/07/31 11:28:23;;;;;;;4.38;2.67;;;;;;;;;;5124152;28;20039;-78
2022/07/31 11:31:09;;;;;;;4.65;3.17;;;;;;;;;;5117015;28;20051;-75
2022/07/31 11:33:54;;;;;;;6.65;5.35;;;;;;;;;;5117279;28;20040;-78
2022/07/31 11:36:42;;;;;;;4.65;3.88;;;;;;;;;;5117326;28;20395;-79
2022/07/31 11:39:29;;;;;;;5.07;3.30;;;;;;;;;;5116728;28;20051;-79
2022/07/31 11:42:14;;;;;;;4.40;3.50;;;;;;;;;;5108584;28;20404;-80
2022/07/31 11:45:04;;;;;;;3.70;3.30;;;;;;;;;;5123678;28;20484;-79
2022/07/31 11:47:50;;;;;;;3.38;3.00;;;;;;;;;;5116069;28;20077;-79
2022/07/31 11:50:40;;;;;;;5.97;3.30;;;;;;;;;;5122908;28;20419;-77
2022/07/31 11:53:26;;;;;;;5.13;3.20;;;;;;;;;;5116676;28;20043;-78
2022/07/31 11:56:11;;;;;;;4.57;3.53;;;;;;;;;;5123798;28;20047;-78
2022/07/31 11:58:57;;;;;;;4.10;3.60;;;;;;;;;;5101601;28;20056;-80
2022/07/31 12:01:42;;;;;;;5.93;3.70;;;;;;;;;;5123493;28;20044;-79
2022/07/31 12:04:29;;;;;;;5.95;3.35;;;;;;;;;;5123113;28;20043;-78
2022/07/31 12:07:14;;;;;;;4.53;3.22;;;;;;;;;;5123479;28;20039;-79
2022/07/31 12:10:02;;;;;;;3.40;3.08;;;;;;;;;;5123059;28;20043;-78
2022/07/31 12:12:47;;;;;;;3.72;3.33;;;;;;;;;;5115974;28;20040;-79
2022/07/31 12:15:32;;;;;;;7.78;2.95;;;;;;;;;;5123617;28;20484;-80
2022/07/31 12:18:19;;;;;;;7.38;3.35;;;;;;;;;;5107400;28;20047;-79
2022/07/31 12:21:04;;;;;;;3.13;2.83;;;;;;;;;;5116044;28;20043;-80
2022/07/31 12:23:51;;;;;;;6.13;2.92;;;;;;;;;;5122774;28;20048;-78
2022/07/31 12:26:36;;;;;;;3.47;2.60;;;;;;;;;;5122899;28;20044;-79
2022/07/31 12:29:31;;;;;;;3.85;2.90;;;;;;;;;;5121836;28;20043;-78
2022/07/31 12:32:24;;;;;;;3.95;3.10;;;;;;;;;;5115646;28;20040;-79
2022/07/31 12:35:10;;;;;;;3.83;2.60;;;;;;;;;;5122624;28;20403;-79
2022/07/31 12:37:57;;;;;;;3.40;2.50;;;;;;;;;;5115353;28;20040;-78
2022/07/31 12:40:42;;;;;;;4.55;3.30;;;;;;;;;;5107746;28;20392;-78
2022/07/31 12:43:28;;;;;;;3.33;3.00;;;;;;;;;;5122366;28;20043;-78
2022/07/31 12:46:14;;;;;;;6.45;3.22;;;;;;;;;;5122582;28;20039;-78
2022/07/31 12:49:01;;;;;;;7.28;3.97;;;;;;;;;;5122347;28;20396;-79
2022/07/31 12:51:47;;;;;;;9.52;5.07;;;;;;;;;;5122309;28;20044;-79
2022/07/31 12:54:36;;;;;;;17.02;7.65;;;;;;;;;;5097674;28;20048;-79
2022/07/31 12:57:21;;;;;;;15.93;7.30;;;;;;;;;;5120868;28;20039;-79
2022/07/31 13:00:11;;;;;;;11.57;6.05;;;;;;;;;;5115042;28;20047;-79
2022/07/31 13:02:56;;;;;;;11.77;6.20;;;;;;;;;;5120093;28;20044;-78
2022/07/31 13:05:43;;;;;;;12.05;5.25;;;;;;;;;;5120077;28;20044;-77
2022/07/31 13:08:30;;;;;;;5.50;3.97;;;;;;;;;;5121372;28;20043;-79
2022/07/31 13:11:16;;;;;;;4.38;3.97;;;;;;;;;;5121692;28;20119;-78
2022/07/31 13:14:04;;;;;;;6.25;3.90;;;;;;;;;;5100131;28;20484;-79
2022/07/31 13:16:51;;;;;;;5.30;3.10;;;;;;;;;;5122141;28;20043;-79
2022/07/31 13:19:36;;;;;;;3.17;2.88;;;;;;;;;;5106516;28;20051;-78
2022/07/31 13:22:22;;;;;;;7.90;3.60;;;;;;;;;;5121214;28;20086;-78
2022/07/31 13:25:09;;;;;;;4.18;3.38;;;;;;;;;;5108304;28;20064;-78
2022/07/31 13:27:55;;;;;;;3.78;3.47;;;;;;;;;;5121594;28;20051;-79
2022/07/31 13:30:41;;;;;;;5.03;3.30;;;;;;;;;;5122147;28;20040;-78
2022/07/31 13:33:26;;;;;;;4.40;3.20;;;;;;;;;;5121823;28;20035;-79
2022/07/31 13:36:12;;;;;;;5.05;2.90;;;;;;;;;;5114859;28;20040;-78
2022/07/31 13:38:58;;;;;;;4.50;2.90;;;;;;;;;;5121635;28;20044;-78
2022/07/31 13:41:43;;;;;;;3.75;2.60;;;;;;;;;;5121400;28;20043;-78
2022/07/31 13:44:29;;;;;;;7.25;2.58;;;;;;;;;;5114516;28;20039;-78
2022/07/31 13:47:15;;;;;;;4.70;2.70;;;;;;;;;;5121708;28;20031;-78
2022/07/31 13:50:00;;;;;;;3.80;2.60;;;;;;;;;;5121345;28;20040;-78
2022/07/31 13:52:45;;;;;;;3.45;2.70;;;;;;;;;;5121429;28;20047;-78
2022/07/31 13:55:31;;;;;;;3.72;2.17;;;;;;;;;;5114951;28;20047;-80
2022/07/31 13:58:18;;;;;;;3.38;2.55;;;;;;;;;;5121408;28;20480;-78
2022/07/31 14:01:04;;;;;;;5.05;3.28;;;;;;;;;;5105723;28;20044;-78
2022/07/31 14:03:49;;;;;;;5.35;3.17;;;;;;;;;;5121311;28;20039;-79
2022/07/31 14:06:34;;;;;;;4.03;2.45;;;;;;;;;;5098734;28;20052;-80
2022/07/31 14:09:20;;;;;;;4.68;2.65;;;;;;;;;;5114234;28;20052;-84
2022/07/31 14:12:06;;;;;;;2.80;2.50;;;;;;;;;;5114499;28;20047;-79
2022/07/31 14:14:51;;;;;;;3.97;2.80;;;;;;;;;;5125700;28;20047;-82
2022/07/31 14:17:38;;;;;;;2.97;2.25;;;;;;;;;;5102973;28;20055;-78
2022/07/31 14:20:24;;;;;;;3.13;2.30;;;;;;;;;;5118686;28;20047;-80
2022/07/31 14:23:09;;;;;;;4.50;2.40;;;;;;;;;;5125847;28;20044;-79
2022/07/31 14:25:55;;;;;;;15.13;11.43;;;;;;;;;;5124896;28;20043;-78
2022/07/31 14:28:40;;;;;;;5.50;2.85;;;;;;;;;;5124967;28;20040;-78
2022/07/31 14:31:31;;;;;;;53.63;38.42;;;;;;;;;;5124535;28;20403;-80
2022/07/31 14:34:17;;;;;;;400.00;343.55;;;;;;;;;;5125045;28;20051;-79
2022/07/31 14:37:03;;;;;;;67.32;54.30;;;;;;;;;;5124757;28;20488;-78
2022/07/31 14:39:49;;;;;;;87.45;62.25;;;;;;;;;;5124762;28;20048;-78
2022/07/31 14:42:34;;;;;;;43.00;30.00;;;;;;;;;;5117905;28;20047;-78
2022/07/31 14:45:21;;;;;;;2.75;2.13;;;;;;;;;;5124536;28;20047;-80
2022/07/31 14:48:06;;;;;;;6.03;4.97;;;;;;;;;;5124172;28;20044;-80
2022/07/31 14:50:52;;;;;;;6.30;3.00;;;;;;;;;;5124405;28;20423;-79
2022/07/31 14:53:38;;;;;;;3.15;1.80;;;;;;;;;;5125346;28;20357;-79
2022/07/31 14:56:28;;;;;;;4.47;2.30;;;;;;;;;;5117812;28;20051;-82
2022/07/31 14:59:14;;;;;;;12.45;2.28;;;;;;;;;;5121296;28;20432;-80
2022/07/31 15:01:59;;;;;;;2.70;1.88;;;;;;;;;;5117863;28;20052;-80
2022/07/31 15:04:55;;;;;;;5.18;2.67;;;;;;;;;;5124828;28;20039;-80
2022/07/31 15:07:40;;;;;;;4.03;2.88;;;;;;;;;;5124479;28;20039;-81
2022/07/31 15:10:29;;;;;;;3.63;1.73;;;;;;;;;;5117208;28;20040;-79
2022/07/31 15:13:14;;;;;;;2.95;2.20;;;;;;;;;;5117769;28;20043;-79
2022/07/31 15:16:03;;;;;;;3.72;2.38;;;;;;;;;;5117092;28;20387;-79
2022/07/31 15:18:49;;;;;;;3.67;2.17;;;;;;;;;;5124570;28;20047;-81
2022/07/31 15:24:57;;;;;;;6.53;2.30;;;;;;;;;;5123401;28;20043;-79
2022/07/31 15:27:57;;;;;;;3.83;2.28;;;;;;;;;;5123644;28;20419;-80
2022/07/31 15:30:49;;;;;;;2.88;2.10;;;;;;;;;;5101985;28;20488;-79
2022/07/31 15:33:40;;;;;;;4.10;2.13;;;;;;;;;;5108800;28;20044;-80
2022/07/31 15:36:27;;;;;;;3.50;2.20;;;;;;;;;;5108292;28;20035;-80
2022/07/31 15:39:13;;;;;;;2.45;1.90;;;;;;;;;;5117102;28;20043;-80
2022/07/31 15:42:00;;;;;;;3.53;2.20;;;;;;;;;;5117303;28;20043;-81
2022/07/31 15:44:46;;;;;;;4.00;2.17;;;;;;;;;;5117180;28;20047;-80
2022/07/31 15:47:31;;;;;;;2.08;1.63;;;;;;;;;;5119004;28;20047;-81
2022/07/31 15:50:19;;;;;;;2.55;2.00;;;;;;;;;;5116936;28;20489;-79
2022/07/31 15:53:03;;;;;;;2.92;1.88;;;;;;;;;;5109502;28;20036;-80
2022/07/31 15:55:48;;;;;;;3.35;1.60;;;;;;;;;;5116663;28;20040;-80
2022/07/31 15:58:34;;;;;;;2.75;1.90;;;;;;;;;;5116719;28;20121;-81
2022/07/31 16:01:19;;;;;;;3.05;2.00;;;;;;;;;;5123740;28;20048;-80
2022/07/31 16:04:05;;;;;;;3.15;2.15;;;;;;;;;;5116889;28;20051;-80
2022/07/31 16:06:50;;;;;;;2.28;1.85;;;;;;;;;;5124078;28;20488;-81
2022/07/31 16:09:36;;;;;;;2.90;1.92;;;;;;;;;;5123122;28;20056;-82
2022/07/31 16:12:22;;;;;;;2.92;1.90;;;;;;;;;;5116832;28;20035;-80
2022/07/31 16:15:10;;;;;;;3.47;1.70;;;;;;;;;;5122814;28;20484;-81
2022/07/31 16:17:56;;;;;;;4.53;2.10;;;;;;;;;;5116996;28;20392;-81
2022/07/31 16:20:41;;;;;;;3.15;2.20;;;;;;;;;;5122872;28;20135;-81
2022/07/31 16:23:27;;;;;;;3.90;2.35;;;;;;;;;;5123948;28;20051;-80
2022/07/31 16:26:14;;;;;;;3.22;1.90;;;;;;;;;;5116020;28;20047;-80
2022/07/31 16:28:59;;;;;;;3.05;1.70;;;;;;;;;;5107382;28;20048;-81
2022/07/31 16:31:46;;;;;;;3.17;1.90;;;;;;;;;;5121916;28;20047;-80
2022/07/31 16:34:32;;;;;;;4.22;2.10;;;;;;;;;;5107314;28;20051;-80
2022/07/31 16:37:18;;;;;;;2.80;1.92;;;;;;;;;;5114556;28;20069;-79
2022/07/31 16:40:05;;;;;;;2.95;1.80;;;;;;;;;;5116067;28;20040;-78
2022/07/31 16:42:51;;;;;;;3.08;1.70;;;;;;;;;;5115735;28;20047;-79
2022/07/31 16:45:37;;;;;;;1.70;1.60;;;;;;;;;;5121426;28;20476;-80
2022/07/31 16:48:22;;;;;;;5.18;2.47;;;;;;;;;;5122162;28;20484;-78
2022/07/31 16:51:08;;;;;;;9.50;2.15;;;;;;;;;;5122144;28;20055;-79
2022/07/31 16:53:54;;;;;;;4.35;2.20;;;;;;;;;;5115550;28;20043;-78
2022/07/31 16:56:40;;;;;;;1.70;1.58;;;;;;;;;;5115269;28;20500;-79
2022/07/31 16:59:26;;;;;;;2.78;2.10;;;;;;;;;;5104087;28;20488;-81